Time;durP1;ratioP1;P1;durP2;ratioP2;P2;SDS_P1;SDS_P2;PMS_P1;PMS_P2;Temp;Humidity;BMP_temperature;BMP_pressure;BME280_temperature;BME280_humidity;BME280_pressure;Samples;Min_cycle;Max_cycle;Signal;HPM_P1;HPM_P2
2023/01/05 00:01:20;;;;;;;29.83;7.22;;;;;;;;;;5053369;28;20036;-36
2023/01/05 00:03:47;;;;;;;24.90;6.75;;;;;;;;;;5053208;28;20483;-37
2023/01/05 00:06:16;;;;;;;30.10;7.47;;;;;;;;;;5052663;28;20041;-36
2023/01/05 00:08:43;;;;;;;34.70;7.65;;;;;;;;;;5051021;28;20033;-45
2023/01/05 00:22:30;;;;;;;25.65;6.03;;;;;;;;;;5048078;28;20047;-47
2023/01/05 00:25:08;;;;;;;21.77;5.53;;;;;;;;;;5048909;28;20047;-42
2023/01/05 00:27:35;;;;;;;37.97;6.13;;;;;;;;;;5052074;28;20035;-41
2023/01/05 00:30:02;;;;;;;45.75;5.60;;;;;;;;;;5051523;28;20049;-42
2023/01/05 00:32:29;;;;;;;41.53;5.65;;;;;;;;;;5051943;28;20092;-40
2023/01/05 00:34:58;;;;;;;35.63;5.70;;;;;;;;;;5048400;28;20025;-45
2023/01/05 00:37:26;;;;;;;34.53;5.75;;;;;;;;;;5051377;28;20028;-45
2023/01/05 00:39:53;;;;;;;36.75;5.00;;;;;;;;;;5051169;28;20452;-39
2023/01/05 00:42:20;;;;;;;36.75;4.78;;;;;;;;;;5050825;28;20029;-46
2023/01/05 00:44:48;;;;;;;48.92;5.93;;;;;;;;;;5048007;28;20064;-36
2023/01/05 00:47:15;;;;;;;44.33;5.88;;;;;;;;;;5052339;28;20025;-34
2023/01/05 00:49:42;;;;;;;43.92;5.90;;;;;;;;;;5052042;28;20479;-35
2023/01/05 00:52:10;;;;;;;44.67;4.90;;;;;;;;;;5052105;28;20025;-37
2023/01/05 00:54:38;;;;;;;32.58;3.72;;;;;;;;;;5052182;28;20543;-37
2023/01/05 00:57:06;;;;;;;41.35;3.97;;;;;;;;;;5052152;28;20059;-39
2023/01/05 00:59:34;;;;;;;38.45;4.30;;;;;;;;;;5052156;28;20491;-38
2023/01/05 01:02:02;;;;;;;44.75;5.18;;;;;;;;;;5051239;28;20032;-37
2023/01/05 01:04:30;;;;;;;45.47;5.50;;;;;;;;;;5051497;28;20083;-38
2023/01/05 01:06:58;;;;;;;46.53;4.90;;;;;;;;;;5055865;28;20019;-39
2023/01/05 01:09:25;;;;;;;32.80;4.53;;;;;;;;;;5069674;28;20059;-36
2023/01/05 01:11:52;;;;;;;37.30;4.75;;;;;;;;;;5070509;28;20028;-40
2023/01/05 01:14:19;;;;;;;32.28;3.78;;;;;;;;;;5063614;28;20179;-38
2023/01/05 01:16:49;;;;;;;36.65;4.90;;;;;;;;;;5069886;28;20083;-39
2023/01/05 01:19:17;;;;;;;30.30;4.07;;;;;;;;;;5063946;28;20041;-42
2023/01/05 01:21:44;;;;;;;21.98;3.83;;;;;;;;;;5070815;28;20064;-36
2023/01/05 01:24:26;;;;;;;32.72;3.85;;;;;;;;;;5052763;28;20123;-36
2023/01/05 01:26:55;;;;;;;32.70;3.50;;;;;;;;;;5070654;28;20485;-40
2023/01/05 01:29:22;;;;;;;21.67;2.78;;;;;;;;;;5070966;28;20772;-35
2023/01/05 01:31:50;;;;;;;22.20;3.33;;;;;;;;;;5070956;28;20115;-41
2023/01/05 01:34:17;;;;;;;31.95;3.25;;;;;;;;;;5067521;28;20038;-38
2023/01/05 01:36:44;;;;;;;25.60;3.00;;;;;;;;;;5069751;28;20115;-39
2023/01/05 01:39:11;;;;;;;32.10;2.88;;;;;;;;;;5069471;28;20137;-36
2023/01/05 01:41:39;;;;;;;27.10;2.65;;;;;;;;;;5070147;28;20103;-38
2023/01/05 01:44:24;;;;;;;29.98;2.80;;;;;;;;;;5061929;28;20195;-36
2023/01/05 01:46:51;;;;;;;19.00;2.58;;;;;;;;;;5069882;28;20035;-41
2023/01/05 01:49:19;;;;;;;26.38;2.42;;;;;;;;;;5071449;28;20033;-35
2023/01/05 01:51:48;;;;;;;34.75;2.75;;;;;;;;;;5050925;28;20071;-39
2023/01/05 01:54:16;;;;;;;19.58;2.00;;;;;;;;;;5063429;28;20075;-37
2023/01/05 01:56:45;;;;;;;18.83;2.03;;;;;;;;;;5065442;28;20078;-35
2023/01/05 01:59:13;;;;;;;19.20;2.05;;;;;;;;;;5071164;28;20031;-34
2023/01/05 02:01:40;;;;;;;21.50;2.42;;;;;;;;;;5062146;28;20044;-36
2023/01/05 02:04:07;;;;;;;17.63;1.98;;;;;;;;;;5061563;28;20044;-40
2023/01/05 02:06:34;;;;;;;19.50;1.52;;;;;;;;;;5058396;28;20037;-34
2023/01/05 02:09:01;;;;;;;22.88;2.30;;;;;;;;;;5067058;28;20017;-36
2023/01/05 02:11:28;;;;;;;26.77;2.50;;;;;;;;;;5065920;28;20017;-42
2023/01/05 02:14:24;;;;;;;17.65;2.25;;;;;;;;;;5067357;28;20121;-43
2023/01/05 02:16:51;;;;;;;19.48;1.77;;;;;;;;;;5049881;28;20041;-39
2023/01/05 02:19:18;;;;;;;24.85;1.83;;;;;;;;;;5068999;28;20024;-41
2023/01/05 02:21:48;;;;;;;17.63;2.10;;;;;;;;;;5068577;28;20037;-36
2023/01/05 02:24:27;;;;;;;18.60;1.90;;;;;;;;;;5069376;28;20453;-37
2023/01/05 02:27:17;;;;;;;25.77;2.25;;;;;;;;;;5059009;28;20020;-34
2023/01/05 02:29:57;;;;;;;25.30;2.85;;;;;;;;;;5049985;28;20040;-43
2023/01/05 02:32:29;;;;;;;28.02;2.85;;;;;;;;;;5063985;28;20474;-35
2023/01/05 02:35:02;;;;;;;17.88;2.65;;;;;;;;;;5070987;28;20030;-42
2023/01/05 02:37:33;;;;;;;37.08;4.13;;;;;;;;;;5056638;28;20104;-35
2023/01/05 02:40:05;;;;;;;40.97;4.82;;;;;;;;;;5058944;28;20261;-40
2023/01/05 02:42:34;;;;;;;54.45;5.43;;;;;;;;;;5063387;28;20043;-36
2023/01/05 02:45:06;;;;;;;43.88;5.15;;;;;;;;;;5040460;28;20041;-36
2023/01/05 02:47:38;;;;;;;66.18;5.53;;;;;;;;;;5068437;28;20045;-42
2023/01/05 02:50:11;;;;;;;44.08;4.93;;;;;;;;;;5066098;28;20111;-41
2023/01/05 02:52:42;;;;;;;43.80;4.38;;;;;;;;;;5067209;28;20028;-38
2023/01/05 02:55:11;;;;;;;26.88;3.05;;;;;;;;;;5069919;28;20064;-35
2023/01/05 02:57:49;;;;;;;24.08;3.13;;;;;;;;;;5068474;28;20025;-39
2023/01/05 03:00:25;;;;;;;33.65;3.05;;;;;;;;;;5064719;28;20044;-39
2023/01/05 03:03:13;;;;;;;37.15;2.40;;;;;;;;;;5072020;28;20031;-36
2023/01/05 03:05:43;;;;;;;33.60;3.10;;;;;;;;;;5068715;28;20119;-39
2023/01/05 03:08:21;;;;;;;38.88;4.10;;;;;;;;;;5067244;28;20033;-42
2023/01/05 03:13:42;;;;;;;40.38;3.92;;;;;;;;;;5068058;28;20043;-35
2023/01/05 03:16:11;;;;;;;41.13;3.42;;;;;;;;;;5067704;28;20084;-35
2023/01/05 03:19:35;;;;;;;35.58;2.45;;;;;;;;;;5072690;28;20028;-37
2023/01/05 03:21:27;;;;;;;33.45;3.28;;;;;;;;;;5065776;28;20049;-41
2023/01/05 03:37:59;;;;;;;26.30;2.35;;;;;;;;;;5062660;28;20106;-38
2023/01/05 03:40:30;;;;;;;28.98;2.38;;;;;;;;;;5052815;28;20037;-43
2023/01/05 03:42:57;;;;;;;33.50;2.38;;;;;;;;;;5053646;28;20107;-40
2023/01/05 03:45:26;;;;;;;23.13;2.30;;;;;;;;;;5052550;28;20047;-40
2023/01/05 03:47:54;;;;;;;36.38;4.05;;;;;;;;;;5053091;28;20036;-35
2023/01/05 03:50:21;;;;;;;44.53;4.60;;;;;;;;;;5052147;28;20041;-41
2023/01/05 03:52:48;;;;;;;37.90;3.45;;;;;;;;;;5052971;28;20120;-37
2023/01/05 03:55:15;;;;;;;30.98;3.63;;;;;;;;;;5052057;28;20028;-40
2023/01/05 03:57:42;;;;;;;22.35;2.70;;;;;;;;;;5051342;28;20108;-35
2023/01/05 04:00:09;;;;;;;20.30;2.72;;;;;;;;;;5051264;28;20033;-35
2023/01/05 04:02:36;;;;;;;26.63;2.50;;;;;;;;;;5052002;28;20041;-37
2023/01/05 04:05:03;;;;;;;17.77;2.17;;;;;;;;;;5051693;28;20044;-35
2023/01/05 04:07:30;;;;;;;21.27;2.28;;;;;;;;;;5053055;28;20116;-34
2023/01/05 04:09:57;;;;;;;23.42;2.63;;;;;;;;;;5052942;28;20064;-35
2023/01/05 04:12:24;;;;;;;27.98;2.83;;;;;;;;;;5053057;28;20024;-34
2023/01/05 04:14:51;;;;;;;20.00;2.35;;;;;;;;;;5052880;28;20564;-38
2023/01/05 04:17:18;;;;;;;20.05;1.98;;;;;;;;;;5053058;28;20051;-37
2023/01/05 04:19:45;;;;;;;26.48;2.40;;;;;;;;;;5052699;28;20112;-35
2023/01/05 04:22:12;;;;;;;17.20;2.05;;;;;;;;;;5052809;28;20025;-34
2023/01/05 04:24:39;;;;;;;15.90;2.10;;;;;;;;;;5052827;28;20029;-35
2023/01/05 04:27:06;;;;;;;23.40;2.50;;;;;;;;;;5052829;28;20036;-35
2023/01/05 04:29:33;;;;;;;19.83;2.22;;;;;;;;;;5052767;28;20025;-36
2023/01/05 04:32:00;;;;;;;22.65;2.22;;;;;;;;;;5052714;28;20025;-37
2023/01/05 04:34:27;;;;;;;23.23;2.38;;;;;;;;;;5052614;28;20530;-34
2023/01/05 04:36:54;;;;;;;21.98;2.55;;;;;;;;;;5052653;28;20039;-35
2023/01/05 04:39:21;;;;;;;22.77;2.70;;;;;;;;;;5052655;28;20033;-34
2023/01/05 04:41:49;;;;;;;22.65;2.90;;;;;;;;;;5051039;28;20025;-35
2023/01/05 04:44:16;;;;;;;19.05;2.28;;;;;;;;;;5052477;28;20032;-36
2023/01/05 04:46:43;;;;;;;15.35;1.98;;;;;;;;;;5052473;28;20033;-36
2023/01/05 04:49:10;;;;;;;10.43;1.50;;;;;;;;;;5052460;28;20072;-36
2023/01/05 04:51:37;;;;;;;24.02;2.53;;;;;;;;;;5052401;28;20037;-35
2023/01/05 04:54:04;;;;;;;16.38;1.98;;;;;;;;;;5052353;28;20052;-34
2023/01/05 04:56:31;;;;;;;13.65;2.25;;;;;;;;;;5052272;28;20048;-35
2023/01/05 04:58:58;;;;;;;13.27;1.80;;;;;;;;;;5052301;28;20025;-35
2023/01/05 05:01:25;;;;;;;12.75;2.15;;;;;;;;;;5052179;28;20021;-35
2023/01/05 05:03:52;;;;;;;16.00;1.98;;;;;;;;;;5052265;28;20033;-34
2023/01/05 05:06:19;;;;;;;13.73;1.70;;;;;;;;;;5052084;28;20048;-35
2023/01/05 05:08:46;;;;;;;12.55;1.90;;;;;;;;;;5051675;28;20025;-39
2023/01/05 05:11:13;;;;;;;13.38;1.38;;;;;;;;;;5052011;28;20048;-35
2023/01/05 05:13:40;;;;;;;15.63;1.75;;;;;;;;;;5052154;28;20108;-35
2023/01/05 05:16:07;;;;;;;9.82;1.73;;;;;;;;;;5051576;28;20053;-35
2023/01/05 05:18:34;;;;;;;10.00;1.70;;;;;;;;;;5051956;28;20104;-36
2023/01/05 05:21:01;;;;;;;11.57;1.38;;;;;;;;;;5051820;28;20029;-34
2023/01/05 05:23:28;;;;;;;7.72;1.45;;;;;;;;;;5051857;28;20168;-35
2023/01/05 05:25:55;;;;;;;10.02;1.35;;;;;;;;;;5051867;28;20083;-35
2023/01/05 05:28:26;;;;;;;8.10;1.02;;;;;;;;;;5051874;28;20491;-35
2023/01/05 05:30:55;;;;;;;5.93;1.00;;;;;;;;;;5051659;28;20033;-35
2023/01/05 05:33:22;;;;;;;8.18;1.23;;;;;;;;;;5051812;28;20029;-34
2023/01/05 05:35:49;;;;;;;6.32;1.08;;;;;;;;;;5051866;28;20546;-34
2023/01/05 05:38:16;;;;;;;10.20;1.35;;;;;;;;;;5051822;28;20040;-36
2023/01/05 05:40:43;;;;;;;11.50;1.40;;;;;;;;;;5051675;28;20536;-35
2023/01/05 05:43:10;;;;;;;9.75;1.20;;;;;;;;;;5051644;28;20021;-35
2023/01/05 05:45:37;;;;;;;10.35;1.30;;;;;;;;;;5045173;28;20040;-39
2023/01/05 05:48:05;;;;;;;7.25;1.38;;;;;;;;;;5031843;28;20435;-38
2023/01/05 05:50:32;;;;;;;9.88;1.52;;;;;;;;;;5031846;28;20033;-41
2023/01/05 05:52:59;;;;;;;9.90;1.25;;;;;;;;;;5031854;28;20021;-39
2023/01/05 05:55:26;;;;;;;7.15;1.15;;;;;;;;;;5031754;28;20059;-39
2023/01/05 05:57:53;;;;;;;3.60;0.85;;;;;;;;;;5031693;28;20021;-41
2023/01/05 06:00:20;;;;;;;4.82;0.90;;;;;;;;;;5031594;28;20392;-39
2023/01/05 06:02:47;;;;;;;5.05;1.20;;;;;;;;;;5047046;28;20029;-33
2023/01/05 06:05:14;;;;;;;6.20;0.90;;;;;;;;;;5051236;28;20479;-35
2023/01/05 06:07:41;;;;;;;5.68;1.20;;;;;;;;;;5051494;28;20037;-34
2023/01/05 06:10:08;;;;;;;9.00;1.08;;;;;;;;;;5051470;28;20021;-37
2023/01/05 06:12:35;;;;;;;6.32;1.02;;;;;;;;;;5051375;28;20032;-35
2023/01/05 06:15:02;;;;;;;5.05;1.00;;;;;;;;;;5051287;28;20056;-35
2023/01/05 06:17:29;;;;;;;4.88;1.05;;;;;;;;;;5051627;28;20047;-36
2023/01/05 06:19:56;;;;;;;3.85;0.85;;;;;;;;;;5053223;28;20036;-36
2023/01/05 06:22:23;;;;;;;6.55;0.90;;;;;;;;;;5055283;28;20021;-35
2023/01/05 06:24:50;;;;;;;7.82;1.17;;;;;;;;;;5054845;28;20040;-40
2023/01/05 06:27:17;;;;;;;4.78;0.80;;;;;;;;;;5054976;28;20056;-41
2023/01/05 06:29:44;;;;;;;4.75;0.80;;;;;;;;;;5054942;28;20518;-41
2023/01/05 06:32:11;;;;;;;6.93;1.10;;;;;;;;;;5055136;28;20483;-38
2023/01/05 06:34:38;;;;;;;4.65;0.77;;;;;;;;;;5054950;28;20503;-41
2023/01/05 06:37:05;;;;;;;7.13;1.40;;;;;;;;;;5054904;28;20036;-41
2023/01/05 06:39:32;;;;;;;4.18;1.10;;;;;;;;;;5054915;28;20025;-39
2023/01/05 06:41:59;;;;;;;8.02;1.17;;;;;;;;;;5054728;28;20499;-41
2023/01/05 06:44:26;;;;;;;8.40;1.17;;;;;;;;;;5054715;28;20535;-40
2023/01/05 06:46:53;;;;;;;8.25;1.20;;;;;;;;;;5054827;28;20029;-39
2023/01/05 06:49:20;;;;;;;9.48;1.58;;;;;;;;;;5054672;28;20074;-40
2023/01/05 06:51:47;;;;;;;11.50;1.30;;;;;;;;;;5054590;28;20029;-40
2023/01/05 06:54:14;;;;;;;13.07;1.80;;;;;;;;;;5054679;28;20100;-39
2023/01/05 06:56:41;;;;;;;10.98;1.35;;;;;;;;;;5054557;28;20498;-42
2023/01/05 06:59:08;;;;;;;9.52;1.20;;;;;;;;;;5054546;28;20029;-41
2023/01/05 07:01:35;;;;;;;9.38;1.42;;;;;;;;;;5054327;28;20028;-38
2023/01/05 07:04:02;;;;;;;8.43;1.25;;;;;;;;;;5054526;28;20033;-40
2023/01/05 07:06:29;;;;;;;11.68;1.20;;;;;;;;;;5054377;28;20032;-37
2023/01/05 07:08:55;;;;;;;13.30;1.58;;;;;;;;;;5054301;28;20037;-41
2023/01/05 07:11:22;;;;;;;12.90;1.40;;;;;;;;;;5054214;28;20033;-39
2023/01/05 07:13:50;;;;;;;12.30;1.60;;;;;;;;;;5054190;28;20025;-40
2023/01/05 07:16:17;;;;;;;7.47;1.25;;;;;;;;;;5053972;28;20451;-41
2023/01/05 07:18:44;;;;;;;13.43;1.30;;;;;;;;;;5054166;28;20051;-38
2023/01/05 07:21:11;;;;;;;11.27;1.20;;;;;;;;;;5054061;28;20025;-37
2023/01/05 07:23:38;;;;;;;9.13;1.13;;;;;;;;;;5054116;28;20048;-41
2023/01/05 07:26:06;;;;;;;11.23;1.20;;;;;;;;;;5054037;28;20037;-39
2023/01/05 07:28:34;;;;;;;8.82;1.08;;;;;;;;;;5053997;28;20036;-40
2023/01/05 07:31:01;;;;;;;7.30;1.15;;;;;;;;;;5053391;28;20052;-38
2023/01/05 07:33:27;;;;;;;3.88;0.90;;;;;;;;;;5053942;28;20032;-41
2023/01/05 07:35:54;;;;;;;6.03;0.85;;;;;;;;;;5053862;28;20029;-40
2023/01/05 07:38:21;;;;;;;3.55;0.70;;;;;;;;;;5053838;28;20439;-39
2023/01/05 07:40:48;;;;;;;6.32;0.88;;;;;;;;;;5053738;28;20028;-40
2023/01/05 07:43:15;;;;;;;6.50;0.90;;;;;;;;;;5053687;28;20064;-39
2023/01/05 07:45:42;;;;;;;4.55;0.73;;;;;;;;;;5053570;28;20044;-41
2023/01/05 07:48:10;;;;;;;5.22;0.88;;;;;;;;;;5053625;28;20033;-40
2023/01/05 07:50:36;;;;;;;5.40;0.80;;;;;;;;;;5053533;28;20036;-37
2023/01/05 07:53:03;;;;;;;4.15;0.60;;;;;;;;;;5053581;28;20024;-40
2023/01/05 07:55:30;;;;;;;3.05;0.80;;;;;;;;;;5053531;28;20029;-40
2023/01/05 07:57:57;;;;;;;5.03;0.70;;;;;;;;;;5053346;28;20032;-41
2023/01/05 08:00:24;;;;;;;6.32;0.90;;;;;;;;;;5053383;28;20055;-41
2023/01/05 08:02:51;;;;;;;3.75;0.82;;;;;;;;;;5053494;28;20025;-41
2023/01/05 08:05:18;;;;;;;8.60;0.90;;;;;;;;;;5053313;28;20035;-38
2023/01/05 08:07:45;;;;;;;9.18;0.88;;;;;;;;;;5053313;28;20029;-40
2023/01/05 08:10:28;;;;;;;4.95;0.77;;;;;;;;;;5053167;28;20029;-37
2023/01/05 08:15:39;;;;;;;5.22;0.70;;;;;;;;;;5053043;28;19923;-39
2023/01/05 08:18:06;;;;;;;5.22;0.80;;;;;;;;;;5053010;28;20033;-36
2023/01/05 08:20:33;;;;;;;3.97;0.90;;;;;;;;;;5052967;28;20024;-35
2023/01/05 08:23:00;;;;;;;12.30;1.40;;;;;;;;;;5052989;28;20040;-34
2023/01/05 08:25:27;;;;;;;9.43;1.17;;;;;;;;;;5052796;28;20037;-35
2023/01/05 08:27:54;;;;;;;7.53;0.93;;;;;;;;;;5052813;28;20025;-35
2023/01/05 08:30:21;;;;;;;12.77;1.50;;;;;;;;;;5052830;28;20112;-35
2023/01/05 08:32:48;;;;;;;14.98;1.80;;;;;;;;;;5034844;28;20036;-35
2023/01/05 08:35:15;;;;;;;15.23;1.65;;;;;;;;;;5052774;28;20541;-35
2023/01/05 08:37:44;;;;;;;14.15;1.85;;;;;;;;;;5052750;28;20033;-34
2023/01/05 08:40:11;;;;;;;9.80;1.30;;;;;;;;;;5052303;28;20037;-35
2023/01/05 08:42:39;;;;;;;9.15;1.20;;;;;;;;;;5051858;28;20036;-35
2023/01/05 08:45:06;;;;;;;16.05;1.50;;;;;;;;;;5052364;28;20040;-35
2023/01/05 08:47:33;;;;;;;12.23;1.80;;;;;;;;;;5052401;28;20033;-35
2023/01/05 08:50:00;;;;;;;22.60;2.35;;;;;;;;;;5052465;28;20021;-35
2023/01/05 08:52:27;;;;;;;20.77;2.20;;;;;;;;;;5052398;28;20025;-37
2023/01/05 08:54:54;;;;;;;11.57;1.85;;;;;;;;;;5052387;28;20031;-34
2023/01/05 08:57:21;;;;;;;23.95;2.50;;;;;;;;;;5052224;28;20037;-38
2023/01/05 08:59:48;;;;;;;21.20;2.17;;;;;;;;;;5052273;28;20380;-37
2023/01/05 09:02:15;;;;;;;19.30;2.22;;;;;;;;;;5052150;28;20480;-34
2023/01/05 09:04:42;;;;;;;17.98;2.13;;;;;;;;;;5052200;28;20372;-35
2023/01/05 09:07:09;;;;;;;9.35;1.83;;;;;;;;;;5052198;28;20028;-34
2023/01/05 09:09:36;;;;;;;19.60;2.20;;;;;;;;;;5052130;28;20025;-37
2023/01/05 09:12:02;;;;;;;23.08;2.28;;;;;;;;;;5052000;28;20036;-35
2023/01/05 09:14:29;;;;;;;15.98;2.10;;;;;;;;;;5051921;28;20045;-35
2023/01/05 09:16:56;;;;;;;18.17;2.33;;;;;;;;;;5051979;28;20475;-35
2023/01/05 09:19:23;;;;;;;17.98;2.17;;;;;;;;;;5052017;28;20033;-35
2023/01/05 09:21:51;;;;;;;26.95;3.17;;;;;;;;;;5052031;28;20029;-34
2023/01/05 09:24:18;;;;;;;24.55;2.65;;;;;;;;;;5051722;28;20029;-35
2023/01/05 09:26:45;;;;;;;22.00;2.92;;;;;;;;;;5051895;28;20025;-35
2023/01/05 09:29:13;;;;;;;16.45;2.42;;;;;;;;;;5051904;28;20029;-35
2023/01/05 09:31:40;;;;;;;18.45;2.55;;;;;;;;;;5051782;28;20021;-34
2023/01/05 09:34:07;;;;;;;19.15;3.20;;;;;;;;;;5051730;28;20056;-35
2023/01/05 09:36:34;;;;;;;26.25;3.17;;;;;;;;;;5051756;28;20078;-34
2023/01/05 09:39:03;;;;;;;23.40;3.00;;;;;;;;;;5051763;28;20036;-34
2023/01/05 09:41:48;;;;;;;33.92;4.10;;;;;;;;;;5051494;28;20025;-35
2023/01/05 09:44:26;;;;;;;24.38;2.80;;;;;;;;;;5051789;28;20033;-35
2023/01/05 09:46:55;;;;;;;66.80;6.32;;;;;;;;;;5051741;28;20037;-36
2023/01/05 09:49:23;;;;;;;54.10;5.38;;;;;;;;;;5051663;28;20104;-32
2023/01/05 09:51:55;;;;;;;58.95;6.28;;;;;;;;;;5051744;28;20426;-34
2023/01/05 09:54:23;;;;;;;58.95;6.32;;;;;;;;;;5054539;28;20524;-35
2023/01/05 09:56:50;;;;;;;49.30;5.22;;;;;;;;;;5055787;28;20017;-36
2023/01/05 09:59:29;;;;;;;41.88;4.60;;;;;;;;;;5055699;28;20032;-35
2023/01/05 10:01:59;;;;;;;36.40;4.80;;;;;;;;;;5055657;28;20033;-34
2023/01/05 10:04:27;;;;;;;40.00;5.05;;;;;;;;;;5055566;28;20056;-35
2023/01/05 10:06:57;;;;;;;46.22;4.40;;;;;;;;;;5055655;28;20036;-36
2023/01/05 10:09:28;;;;;;;47.55;5.43;;;;;;;;;;5055403;28;20047;-34
2023/01/05 10:14:50;;;;;;;53.75;4.72;;;;;;;;;;5055535;28;20122;-35
2023/01/05 10:17:16;;;;;;;;;;;;;;;;;;5055876;28;20021;-35
2023/01/05 10:19:44;;;;;;;47.95;5.63;;;;;;;;;;5055284;28;19916;-35
2023/01/05 10:22:26;;;;;;;50.15;4.80;;;;;;;;;;5055349;28;20036;-36
2023/01/05 10:24:57;;;;;;;38.78;4.78;;;;;;;;;;5054984;28;20437;-35
2023/01/05 10:27:30;;;;;;;44.80;5.72;;;;;;;;;;5055180;28;20044;-34
2023/01/05 10:30:03;;;;;;;37.03;4.63;;;;;;;;;;5037072;28;20448;-34
2023/01/05 10:32:40;;;;;;;39.95;4.60;;;;;;;;;;5052182;28;20112;-36
2023/01/05 10:35:13;;;;;;;43.08;4.95;;;;;;;;;;5055119;28;20443;-35
2023/01/05 10:37:43;;;;;;;32.88;4.53;;;;;;;;;;5055083;28;20021;-34
2023/01/05 10:40:28;;;;;;;41.95;5.30;;;;;;;;;;5054885;28;20033;-34
2023/01/05 10:43:15;;;;;;;39.83;5.00;;;;;;;;;;5054942;28;20051;-33
2023/01/05 10:45:45;;;;;;;65.55;7.13;;;;;;;;;;5036802;28;20032;-34
2023/01/05 10:48:16;;;;;;;56.63;7.38;;;;;;;;;;5054892;28;20071;-35
2023/01/05 10:50:47;;;;;;;52.97;6.30;;;;;;;;;;5054716;28;20029;-33
2023/01/05 10:53:19;;;;;;;61.40;6.43;;;;;;;;;;5054665;28;20017;-32
2023/01/05 10:56:02;;;;;;;59.72;7.43;;;;;;;;;;5054715;28;20033;-34
2023/01/05 10:58:30;;;;;;;50.10;6.25;;;;;;;;;;5054597;28;20577;-33
2023/01/05 11:01:03;;;;;;;53.38;6.45;;;;;;;;;;5054482;28;20475;-34
2023/01/05 11:03:40;;;;;;;35.40;4.35;;;;;;;;;;5054580;28;20025;-32
2023/01/05 11:06:08;;;;;;;36.85;5.03;;;;;;;;;;5053623;28;20025;-33
2023/01/05 11:08:36;;;;;;;42.78;5.05;;;;;;;;;;5054588;28;20041;-33
2023/01/05 11:14:43;;;;;;;32.78;3.70;;;;;;;;;;5050682;28;20052;-39
2023/01/05 11:17:14;;;;;;;23.27;3.88;;;;;;;;;;5014563;28;20038;-37
2023/01/05 11:19:44;;;;;;;29.08;3.88;;;;;;;;;;5014468;28;20025;-37
2023/01/05 11:22:34;;;;;;;26.55;4.35;;;;;;;;;;5014445;28;20032;-39
2023/01/05 11:25:20;;;;;;;17.65;3.15;;;;;;;;;;5006725;28;20139;-35
2023/01/05 11:27:47;;;;;;;24.02;3.58;;;;;;;;;;5014276;28;20037;-39
2023/01/05 11:30:17;;;;;;;17.55;2.72;;;;;;;;;;5014301;28;20507;-39
2023/01/05 11:32:45;;;;;;;18.55;2.85;;;;;;;;;;5014147;28;20045;-39
2023/01/05 11:35:25;;;;;;;20.50;2.95;;;;;;;;;;5014293;28;20036;-37
2023/01/05 11:37:52;;;;;;;12.93;2.78;;;;;;;;;;5014126;28;20022;-36
2023/01/05 11:40:19;;;;;;;14.88;2.42;;;;;;;;;;5029235;28;20598;-38
2023/01/05 11:42:46;;;;;;;10.23;2.08;;;;;;;;;;5014074;28;20033;-38
2023/01/05 11:45:13;;;;;;;14.55;2.30;;;;;;;;;;5013998;28;20030;-37
2023/01/05 11:47:44;;;;;;;18.80;2.45;;;;;;;;;;5014018;28;20036;-37
2023/01/05 11:50:13;;;;;;;13.15;2.53;;;;;;;;;;5013885;28;20034;-40
2023/01/05 11:52:41;;;;;;;15.57;2.22;;;;;;;;;;5013757;28;20120;-39
2023/01/05 11:55:20;;;;;;;16.48;2.15;;;;;;;;;;5013835;28;20499;-39
2023/01/05 11:57:48;;;;;;;15.70;2.47;;;;;;;;;;5013804;28;20033;-40
2023/01/05 12:00:28;;;;;;;11.23;2.08;;;;;;;;;;5013598;28;20065;-37
2023/01/05 12:03:08;;;;;;;12.38;1.98;;;;;;;;;;5013617;28;20022;-35
2023/01/05 12:05:47;;;;;;;10.10;1.50;;;;;;;;;;5013613;28;20160;-37
2023/01/05 12:08:17;;;;;;;9.18;1.90;;;;;;;;;;5013496;28;20038;-36
2023/01/05 12:10:51;;;;;;;12.18;2.00;;;;;;;;;;5013505;28;20037;-38
2023/01/05 12:13:27;;;;;;;10.60;1.98;;;;;;;;;;5013379;28;20397;-38
2023/01/05 12:19:16;;;;;;;11.35;1.70;;;;;;;;;;5052988;28;20040;-39
2023/01/05 12:21:52;;;;;;;10.35;1.70;;;;;;;;;;5053071;28;20039;-37
2023/01/05 12:24:37;;;;;;;12.80;2.05;;;;;;;;;;5053104;28;20025;-38
2023/01/05 12:27:14;;;;;;;14.32;2.00;;;;;;;;;;5052825;28;20037;-37
2023/01/05 12:29:54;;;;;;;10.40;1.75;;;;;;;;;;5052924;28;20059;-36
2023/01/05 12:32:33;;;;;;;14.25;2.10;;;;;;;;;;5052797;28;20036;-38
2023/01/05 12:35:10;;;;;;;19.00;2.20;;;;;;;;;;5052760;28;20033;-37
2023/01/05 12:37:55;;;;;;;17.70;2.08;;;;;;;;;;5052667;28;20021;-37
2023/01/05 12:40:22;;;;;;;14.88;2.65;;;;;;;;;;5052771;28;20479;-39
2023/01/05 12:42:57;;;;;;;13.57;2.15;;;;;;;;;;5052459;28;20043;-38
2023/01/05 12:45:46;;;;;;;10.75;1.70;;;;;;;;;;5052583;28;20028;-35
2023/01/05 12:48:36;;;;;;;13.50;2.08;;;;;;;;;;5034417;28;20394;-39
2023/01/05 12:51:06;;;;;;;8.55;2.13;;;;;;;;;;5039964;28;20120;-35
2023/01/05 12:53:36;;;;;;;7.00;1.50;;;;;;;;;;5052315;28;20098;-39
2023/01/05 12:56:19;;;;;;;13.85;1.75;;;;;;;;;;5052315;28;20033;-38
2023/01/05 12:58:53;;;;;;;7.85;1.98;;;;;;;;;;5052189;28;20021;-39
2023/01/05 13:01:23;;;;;;;6.60;1.50;;;;;;;;;;5052161;28;20036;-38
2023/01/05 13:04:03;;;;;;;7.07;1.70;;;;;;;;;;5052245;28;20021;-38
2023/01/05 13:06:34;;;;;;;7.60;1.20;;;;;;;;;;5051580;28;20037;-37
2023/01/05 13:09:09;;;;;;;6.55;1.27;;;;;;;;;;5052236;28;20032;-37
2023/01/05 13:11:38;;;;;;;9.02;1.45;;;;;;;;;;5052139;28;20465;-38
2023/01/05 13:14:15;;;;;;;13.38;1.85;;;;;;;;;;5052029;28;20029;-37
2023/01/05 13:16:53;;;;;;;7.68;1.58;;;;;;;;;;5051664;28;20443;-32
2023/01/05 13:19:22;;;;;;;8.10;1.73;;;;;;;;;;5051865;28;20387;-32
2023/01/05 13:21:50;;;;;;;10.43;1.45;;;;;;;;;;5051961;28;20017;-33
2023/01/05 13:24:23;;;;;;;15.38;2.05;;;;;;;;;;5051187;28;20550;-35
2023/01/05 13:26:50;;;;;;;6.75;1.35;;;;;;;;;;5048816;28;20033;-36
2023/01/05 13:29:27;;;;;;;3.92;1.20;;;;;;;;;;5051493;28;20096;-39
2023/01/05 13:32:13;;;;;;;4.50;1.38;;;;;;;;;;5051711;28;20605;-37
2023/01/05 13:34:52;;;;;;;8.95;1.38;;;;;;;;;;5050374;28;20032;-33
2023/01/05 13:37:38;;;;;;;10.27;2.03;;;;;;;;;;5067945;28;20083;-34
2023/01/05 13:40:11;;;;;;;23.45;1.98;;;;;;;;;;5059211;28;20033;-32
2023/01/05 13:42:57;;;;;;;20.98;2.05;;;;;;;;;;5037562;28;20039;-32
2023/01/05 13:45:33;;;;;;;15.93;2.15;;;;;;;;;;5049632;28;20045;-39
2023/01/05 13:48:06;;;;;;;20.33;2.00;;;;;;;;;;5070651;28;20060;-34
2023/01/05 13:50:45;;;;;;;13.55;1.52;;;;;;;;;;5065218;28;20031;-32
2023/01/05 13:53:20;;;;;;;15.73;1.98;;;;;;;;;;5071274;28;20029;-35
2023/01/05 13:55:57;;;;;;;13.18;1.65;;;;;;;;;;5066138;28;20052;-34
2023/01/05 13:58:43;;;;;;;11.00;1.58;;;;;;;;;;5070807;28;20031;-34
2023/01/05 14:01:17;;;;;;;12.30;1.77;;;;;;;;;;5070806;28;20496;-33
2023/01/05 14:03:52;;;;;;;10.32;1.40;;;;;;;;;;5070854;28;20025;-37
2023/01/05 14:06:30;;;;;;;9.93;1.38;;;;;;;;;;5068046;28;20036;-34
2023/01/05 14:09:07;;;;;;;11.48;1.75;;;;;;;;;;5064244;28;20067;-39
2023/01/05 14:11:36;;;;;;;10.13;1.20;;;;;;;;;;5066782;28;20021;-38
2023/01/05 14:14:07;;;;;;;8.07;1.25;;;;;;;;;;5051320;28;20040;-32
2023/01/05 14:16:37;;;;;;;10.63;2.22;;;;;;;;;;5050606;28;20064;-37
2023/01/05 14:19:10;;;;;;;9.68;1.45;;;;;;;;;;5061037;28;20507;-34
2023/01/05 14:21:49;;;;;;;12.10;1.95;;;;;;;;;;5070678;28;20073;-38
2023/01/05 14:24:37;;;;;;;11.43;1.80;;;;;;;;;;5067789;28;20052;-33
2023/01/05 14:27:08;;;;;;;10.75;1.27;;;;;;;;;;5063706;28;20034;-33
2023/01/05 14:29:47;;;;;;;6.20;1.55;;;;;;;;;;5068635;28;20025;-40
2023/01/05 14:32:28;;;;;;;10.30;1.70;;;;;;;;;;5065309;28;20103;-38
2023/01/05 14:35:02;;;;;;;15.82;2.05;;;;;;;;;;5066651;28;20025;-38
2023/01/05 14:37:43;;;;;;;10.43;2.08;;;;;;;;;;5058865;28;20029;-40
2023/01/05 14:40:15;;;;;;;12.47;2.00;;;;;;;;;;5038109;28;20506;-34
2023/01/05 14:42:46;;;;;;;8.98;1.92;;;;;;;;;;5054682;28;20434;-32
2023/01/05 14:45:33;;;;;;;13.02;2.05;;;;;;;;;;5056124;28;20502;-32
2023/01/05 14:48:06;;;;;;;10.43;2.03;;;;;;;;;;5069772;28;20067;-37
2023/01/05 14:50:37;;;;;;;17.25;2.53;;;;;;;;;;5059870;28;20029;-35
2023/01/05 14:53:33;;;;;;;20.42;2.38;;;;;;;;;;5073418;28;20054;-33
2023/01/05 14:56:02;;;;;;;18.77;2.55;;;;;;;;;;5055130;28;20132;-34
2023/01/05 14:58:40;;;;;;;25.48;2.63;;;;;;;;;;5054492;28;20108;-39
2023/01/05 15:01:16;;;;;;;22.83;2.58;;;;;;;;;;5054103;28;20071;-40
2023/01/05 15:03:45;;;;;;;15.00;2.65;;;;;;;;;;5060475;28;20067;-38
2023/01/05 15:06:31;;;;;;;19.58;2.38;;;;;;;;;;5074157;28;20421;-36
2023/01/05 15:09:27;;;;;;;17.50;2.75;;;;;;;;;;5041777;28;20021;-41
2023/01/05 15:12:01;;;;;;;29.85;2.70;;;;;;;;;;4997104;28;20039;-33
2023/01/05 15:14:48;;;;;;;27.33;3.10;;;;;;;;;;5049262;28;20032;-37
2023/01/05 15:17:33;;;;;;;21.85;2.97;;;;;;;;;;5032717;28;20056;-35
2023/01/05 15:20:18;;;;;;;17.85;2.60;;;;;;;;;;5073970;28;20017;-34
2023/01/05 15:22:48;;;;;;;19.80;2.88;;;;;;;;;;5073358;28;20519;-38
2023/01/05 15:25:33;;;;;;;25.33;3.33;;;;;;;;;;5072510;28;20047;-39
2023/01/05 15:28:18;;;;;;;23.42;3.38;;;;;;;;;;5072904;28;20430;-39
2023/01/05 15:31:03;;;;;;;19.00;3.13;;;;;;;;;;5073110;28;20044;-34
2023/01/05 15:33:45;;;;;;;23.85;2.75;;;;;;;;;;5073797;28;20013;-34
2023/01/05 15:36:22;;;;;;;21.60;3.47;;;;;;;;;;5073770;28;20029;-38